createdAt,value
2023-01-30T00:01:07.262Z,1.24
2023-01-30T00:03:35.307Z,1.09
2023-01-30T00:06:02.809Z,1.02
2023-01-30T00:08:30.006Z,0.69
2023-01-30T00:10:58.242Z,0.86
2023-01-30T00:13:25.477Z,0.77
2023-01-30T00:15:52.937Z,0.82
2023-01-30T00:18:20.005Z,0.89
2023-01-30T00:20:47.737Z,0.89
2023-01-30T00:23:15.136Z,0.91
2023-01-30T00:25:46.136Z,0.96
2023-01-30T00:28:13.567Z,0.87
2023-01-30T00:30:42.256Z,0.93
2023-01-30T00:33:16.387Z,0.89
2023-01-30T00:35:49.034Z,0.94
2023-01-30T00:38:17.191Z,0.48
2023-01-30T00:40:45.074Z,0.70
2023-01-30T00:43:33.512Z,0.79
2023-01-30T00:46:21.497Z,0.96
2023-01-30T00:49:07.401Z,0.93
2023-01-30T00:51:35.358Z,0.81
2023-01-30T00:54:02.542Z,0.96
2023-01-30T00:56:32.045Z,0.79
2023-01-30T00:58:59.350Z,0.91
2023-01-30T01:01:45.354Z,1.00
2023-01-30T01:04:13.719Z,1.11
2023-01-30T01:06:41.593Z,1.14
2023-01-30T01:09:08.822Z,1.11
2023-01-30T01:11:36.451Z,1.23
2023-01-30T01:14:05.743Z,1.27
2023-01-30T01:16:34.656Z,1.17
2023-01-30T01:19:02.391Z,1.20
2023-01-30T01:21:29.941Z,1.23
2023-01-30T01:24:00.555Z,1.11
2023-01-30T01:26:28.551Z,1.14
2023-01-30T01:28:57.696Z,1.25
2023-01-30T01:31:25.996Z,1.24
2023-01-30T01:33:56.971Z,1.21
2023-01-30T01:36:51.508Z,1.20
2023-01-30T01:39:13.536Z,1.15
2023-01-30T01:41:41.269Z,1.25
2023-01-30T01:44:11.283Z,1.23
2023-01-30T01:46:51.980Z,1.31
2023-01-30T01:49:30.920Z,1.15
2023-01-30T01:52:27.270Z,1.20
2023-01-30T01:54:59.847Z,1.04
2023-01-30T01:57:34.072Z,0.98
2023-01-30T02:00:13.001Z,1.19
2023-01-30T02:02:43.994Z,1.15
2023-01-30T02:05:14.238Z,1.18
2023-01-30T02:07:48.971Z,1.17
2023-01-30T02:10:23.727Z,1.24
2023-01-30T02:12:54.078Z,1.24
2023-01-30T02:15:22.431Z,1.29
2023-01-30T02:17:50.160Z,1.22
2023-01-30T02:20:36.219Z,1.15
2023-01-30T02:23:22.715Z,1.21
2023-01-30T02:26:26.272Z,1.17
2023-01-30T02:29:32.898Z,1.28
2023-01-30T02:32:20.985Z,1.25
2023-01-30T02:34:59.427Z,1.33
2023-01-30T02:37:45.301Z,1.33
2023-01-30T02:40:25.357Z,1.30
2023-01-30T02:43:05.028Z,1.21
2023-01-30T02:45:35.965Z,1.07
2023-01-30T02:48:07.912Z,1.10
2023-01-30T02:50:39.815Z,1.18
2023-01-30T02:53:09.074Z,1.11
2023-01-30T02:55:40.121Z,1.05
2023-01-30T02:58:09.036Z,1.07
2023-01-30T03:01:06.237Z,0.96
2023-01-30T03:04:07.298Z,1.02
2023-01-30T03:07:10.243Z,1.04
2023-01-30T03:10:17.979Z,1.05
2023-01-30T03:13:00.256Z,1.03
2023-01-30T03:15:38.942Z,1.00
2023-01-30T03:18:07.906Z,0.99
2023-01-30T03:20:42.091Z,0.93
2023-01-30T03:23:09.837Z,1.01
2023-01-30T03:25:40.053Z,1.11
2023-01-30T03:28:09.245Z,1.10
2023-01-30T03:30:37.219Z,1.17
2023-01-30T03:33:09.646Z,1.24
2023-01-30T03:35:40.354Z,1.17
2023-01-30T03:38:10.699Z,0.95
2023-01-30T03:40:38.259Z,1.07
2023-01-30T03:43:05.962Z,1.05
2023-01-30T03:45:36.168Z,1.00
2023-01-30T03:48:03.753Z,0.95
2023-01-30T03:50:31.679Z,1.05
2023-01-30T03:53:00.333Z,0.97
2023-01-30T03:55:27.652Z,1.03
2023-01-30T03:57:57.052Z,0.94
2023-01-30T04:00:27.252Z,0.85
2023-01-30T04:02:57.140Z,1.02
2023-01-30T04:05:25.216Z,1.08
2023-01-30T04:07:59.192Z,1.22
2023-01-30T04:10:27.297Z,1.22
2023-01-30T04:12:54.892Z,1.21
2023-01-30T04:15:24.078Z,1.18
2023-01-30T04:18:10.059Z,0.95
2023-01-30T04:20:58.772Z,1.13
2023-01-30T04:23:33.770Z,1.08
2023-01-30T04:26:01.021Z,1.11
2023-01-30T04:28:28.561Z,1.24
2023-01-30T04:30:55.826Z,1.11
2023-01-30T04:33:41.026Z,1.11
2023-01-30T04:36:10.707Z,1.18
2023-01-30T04:38:38.939Z,1.05
2023-01-30T04:41:08.038Z,1.00
2023-01-30T04:43:39.912Z,1.08
2023-01-30T04:46:46.265Z,1.17
2023-01-30T04:49:15.129Z,1.07
2023-01-30T04:51:43.538Z,1.03
2023-01-30T04:54:10.991Z,0.95
2023-01-30T04:56:42.649Z,1.02
2023-01-30T04:59:10.733Z,0.93
2023-01-30T05:01:42.936Z,0.97
2023-01-30T05:04:29.045Z,0.90
2023-01-30T05:06:56.204Z,0.82
2023-01-30T05:09:23.615Z,0.88
2023-01-30T05:11:50.738Z,0.88
2023-01-30T05:14:18.210Z,0.99
2023-01-30T05:16:45.362Z,0.86
2023-01-30T05:19:13.968Z,0.83
2023-01-30T05:21:41.335Z,0.97
2023-01-30T05:24:09.059Z,0.70
2023-01-30T05:26:36.219Z,0.76
2023-01-30T05:29:03.753Z,0.84
2023-01-30T05:31:30.938Z,0.75
2023-01-30T05:33:58.443Z,0.83
2023-01-30T05:36:25.574Z,1.00
2023-01-30T05:38:53.230Z,0.77
2023-01-30T05:41:20.600Z,0.77
2023-01-30T05:43:51.964Z,0.61
2023-01-30T05:46:20.001Z,0.58
2023-01-30T05:48:48.071Z,0.48
2023-01-30T05:51:26.108Z,0.13
2023-01-30T05:53:53.796Z,0.20
2023-01-30T05:56:21.142Z,0.21
2023-01-30T05:58:56.657Z,0.04
2023-01-30T06:01:26.099Z,-0.02
2023-01-30T06:03:54.052Z,-0.10
2023-01-30T06:06:22.741Z,-0.26
2023-01-30T06:08:57.867Z,-0.18
2023-01-30T06:11:26.807Z,0.05
2023-01-30T06:13:54.891Z,0.01
2023-01-30T06:16:23.125Z,0.04
2023-01-30T06:18:51.717Z,0.24
2023-01-30T06:21:19.160Z,0.27
2023-01-30T06:23:46.857Z,0.38
2023-01-30T06:26:15.831Z,0.36
2023-01-30T06:28:47.252Z,0.53
2023-01-30T06:31:17.143Z,0.54
2023-01-30T06:33:45.698Z,0.55
2023-01-30T06:36:14.385Z,0.66
2023-01-30T06:38:43.235Z,0.71
2023-01-30T06:41:11.719Z,0.82
2023-01-30T06:43:44.576Z,0.93
2023-01-30T06:46:12.206Z,0.96
2023-01-30T06:48:39.825Z,1.02
2023-01-30T06:51:08.191Z,0.88
2023-01-30T06:53:44.018Z,0.95
2023-01-30T06:56:12.947Z,1.05
2023-01-30T06:58:57.756Z,1.19
2023-01-30T07:01:28.949Z,1.40
2023-01-30T07:04:00.508Z,3.00
2023-01-30T07:06:30.812Z,4.30
2023-01-30T07:08:59.845Z,5.72
2023-01-30T07:11:28.957Z,6.69
2023-01-30T07:13:59.953Z,7.75
2023-01-30T07:16:30.305Z,8.19
2023-01-30T07:18:59.316Z,7.29
2023-01-30T07:21:29.089Z,7.61
2023-01-30T07:23:56.878Z,7.71
2023-01-30T07:26:25.080Z,6.72
2023-01-30T07:28:52.576Z,6.42
2023-01-30T07:31:19.767Z,6.10
2023-01-30T07:33:47.281Z,5.14
2023-01-30T07:36:20.262Z,4.65
2023-01-30T07:38:50.865Z,4.03
2023-01-30T07:41:24.441Z,3.82
2023-01-30T07:43:56.179Z,3.90
2023-01-30T07:46:26.272Z,3.77
2023-01-30T07:49:23.079Z,3.77
2023-01-30T07:51:54.995Z,3.56
2023-01-30T07:54:28.647Z,3.20
2023-01-30T07:57:09.182Z,3.48
2023-01-30T07:59:38.273Z,3.56
2023-01-30T08:02:09.456Z,3.38
2023-01-30T08:04:47.309Z,3.27
2023-01-30T08:07:26.589Z,3.29
2023-01-30T08:10:12.026Z,3.46
2023-01-30T08:12:41.082Z,3.19
2023-01-30T08:15:11.069Z,3.39
2023-01-30T08:17:40.323Z,3.38
2023-01-30T08:20:09.594Z,3.44
2023-01-30T08:22:37.517Z,3.96
2023-01-30T08:25:08.649Z,4.85
2023-01-30T08:30:35.477Z,5.95
2023-01-30T08:33:06.137Z,5.82
2023-01-30T08:35:47.187Z,5.97
2023-01-30T08:38:14.530Z,6.47
2023-01-30T08:40:48.680Z,7.23
2023-01-30T08:43:28.216Z,6.97
2023-01-30T08:46:04.259Z,6.56
2023-01-30T08:48:49.846Z,6.58
2023-01-30T08:51:19.005Z,6.39
2023-01-30T08:53:50.273Z,5.69
2023-01-30T08:56:39.152Z,5.81
2023-01-30T08:59:11.579Z,5.83
2023-01-30T09:01:45.469Z,5.68
2023-01-30T09:04:13.042Z,5.60
2023-01-30T09:06:41.336Z,5.84
2023-01-30T09:09:08.941Z,7.57
2023-01-30T09:11:37.260Z,8.68
2023-01-30T09:14:13.407Z,9.37
2023-01-30T09:16:57.786Z,10.91
2023-01-30T09:19:28.436Z,11.53
2023-01-30T09:21:56.388Z,10.99
2023-01-30T09:24:26.779Z,12.16
2023-01-30T09:27:02.763Z,11.66
2023-01-30T09:29:37.179Z,12.82
2023-01-30T09:32:14.043Z,13.01
2023-01-30T09:34:52.834Z,12.78
2023-01-30T09:37:23.599Z,12.10
2023-01-30T09:40:11.799Z,12.07
2023-01-30T09:43:25.400Z,10.34
2023-01-30T09:46:43.955Z,9.82
2023-01-30T09:49:28.978Z,9.86
2023-01-30T09:52:18.853Z,10.95
2023-01-30T09:54:46.633Z,12.01
2023-01-30T09:57:22.557Z,12.25
2023-01-30T10:00:01.930Z,12.63
2023-01-30T10:02:58.870Z,11.67
2023-01-30T10:05:44.298Z,10.66
2023-01-30T10:08:36.296Z,12.26
2023-01-30T10:11:41.355Z,10.82
2023-01-30T10:14:43.969Z,9.77
2023-01-30T10:17:57.988Z,10.13
2023-01-30T10:20:53.904Z,10.25
2023-01-30T10:23:50.701Z,11.38
2023-01-30T10:26:32.578Z,10.62
2023-01-30T10:29:26.329Z,11.15
2023-01-30T10:32:10.238Z,11.44
2023-01-30T10:34:56.445Z,11.54
2023-01-30T10:37:42.505Z,10.90
2023-01-30T10:40:26.921Z,11.75
2023-01-30T10:43:26.071Z,11.75
2023-01-30T10:46:24.673Z,12.26
2023-01-30T10:49:16.720Z,12.12
2023-01-30T10:52:25.138Z,11.57
2023-01-30T10:55:10.909Z,9.65
2023-01-30T10:57:55.264Z,10.37
2023-01-30T11:01:07.881Z,10.95
2023-01-30T11:03:46.952Z,11.12
2023-01-30T11:06:19.123Z,10.65
2023-01-30T11:08:46.432Z,10.02
2023-01-30T11:11:27.557Z,8.86
2023-01-30T11:14:09.476Z,7.55
2023-01-30T11:16:53.399Z,6.68
2023-01-30T11:19:24.949Z,6.20
2023-01-30T11:22:00.094Z,5.39
2023-01-30T11:24:46.672Z,4.76
2023-01-30T11:27:33.659Z,5.22
2023-01-30T11:30:18.292Z,6.04
2023-01-30T11:32:53.460Z,6.63
2023-01-30T11:35:28.263Z,7.44
2023-01-30T11:38:13.018Z,8.56
2023-01-30T11:40:43.831Z,8.83
2023-01-30T11:43:21.648Z,9.47
2023-01-30T11:45:51.573Z,9.29
2023-01-30T11:49:35.664Z,9.95
2023-01-30T11:51:58.635Z,9.99
2023-01-30T11:54:34.865Z,10.65
2023-01-30T11:57:11.407Z,9.37
2023-01-30T11:59:59.684Z,9.71
2023-01-30T12:02:48.711Z,9.49
2023-01-30T12:05:31.357Z,9.15
2023-01-30T12:08:57.052Z,9.54
2023-01-30T12:12:01.707Z,10.30
2023-01-30T12:14:45.885Z,10.52
2023-01-30T12:17:30.407Z,9.13
2023-01-30T12:20:26.850Z,8.31
2023-01-30T12:23:17.262Z,8.46
2023-01-30T12:26:01.119Z,8.01
2023-01-30T12:29:01.707Z,8.23
2023-01-30T12:31:39.145Z,7.22
2023-01-30T12:34:09.822Z,8.03
2023-01-30T12:37:16.076Z,7.90
2023-01-30T12:39:43.972Z,7.30
2023-01-30T12:42:23.814Z,7.48
2023-01-30T12:45:11.953Z,7.04
2023-01-30T12:48:17.236Z,7.51
2023-01-30T12:50:58.787Z,7.58
2023-01-30T12:54:28.512Z,7.21
2023-01-30T12:57:12.924Z,6.54
2023-01-30T12:59:45.566Z,7.53
2023-01-30T13:02:44.531Z,7.54
2023-01-30T13:05:35.127Z,7.65
2023-01-30T13:08:33.725Z,6.70
2023-01-30T13:11:32.467Z,7.28
2023-01-30T13:14:06.228Z,6.51
2023-01-30T13:17:20.501Z,6.00
2023-01-30T13:20:22.535Z,4.69
2023-01-30T13:23:06.458Z,4.35
2023-01-30T13:25:43.958Z,4.25
2023-01-30T13:28:26.072Z,4.42
2023-01-30T13:31:00.319Z,4.46
2023-01-30T13:33:42.523Z,4.01
2023-01-30T13:36:37.309Z,4.00
2023-01-30T13:39:32.162Z,3.64
2023-01-30T13:42:26.679Z,4.10
2023-01-30T13:44:58.781Z,4.05
2023-01-30T13:47:26.325Z,4.39
2023-01-30T13:50:36.378Z,4.75
2023-01-30T13:54:03.693Z,4.16
2023-01-30T13:56:49.172Z,4.18
2023-01-30T14:00:12.810Z,4.50
2023-01-30T14:03:07.427Z,4.50
2023-01-30T14:06:15.474Z,4.44
2023-01-30T14:08:45.290Z,4.48
2023-01-30T14:11:35.432Z,4.25
2023-01-30T14:14:42.079Z,4.05
2023-01-30T14:17:16.243Z,3.87
2023-01-30T14:20:21.744Z,3.71
2023-01-30T14:23:06.497Z,3.45
2023-01-30T14:25:44.547Z,3.61
2023-01-30T14:28:20.488Z,3.57
2023-01-30T14:31:05.385Z,3.53
2023-01-30T14:33:47.860Z,3.57
2023-01-30T14:36:21.073Z,3.33
2023-01-30T14:39:17.337Z,3.46
2023-01-30T14:42:07.393Z,3.33
2023-01-30T14:45:00.138Z,3.63
2023-01-30T14:47:47.132Z,3.77
2023-01-30T14:50:24.795Z,3.39
2023-01-30T14:52:56.600Z,3.12
2023-01-30T14:55:29.823Z,2.90
2023-01-30T14:58:06.428Z,3.09
2023-01-30T15:00:38.505Z,2.98
2023-01-30T15:03:37.742Z,2.90
2023-01-30T15:06:38.743Z,2.91
2023-01-30T15:09:20.294Z,2.60
2023-01-30T15:12:03.844Z,2.48
2023-01-30T15:14:53.941Z,2.34
2023-01-30T15:17:52.721Z,2.36
2023-01-30T15:20:39.377Z,2.47
2023-01-30T15:23:44.606Z,2.30
2023-01-30T15:26:49.849Z,2.44
2023-01-30T15:29:58.310Z,2.39
2023-01-30T15:32:29.623Z,2.24
2023-01-30T15:35:24.761Z,2.34
2023-01-30T15:37:57.433Z,2.25
2023-01-30T15:40:29.916Z,2.24
2023-01-30T15:43:23.126Z,2.21
2023-01-30T15:46:23.892Z,2.24
2023-01-30T15:49:01.457Z,1.98
2023-01-30T15:51:42.703Z,2.13
2023-01-30T15:54:17.034Z,1.87
2023-01-30T15:56:49.924Z,1.77
2023-01-30T15:59:45.603Z,1.60
2023-01-30T16:02:28.533Z,1.65
2023-01-30T16:05:18.432Z,1.78
2023-01-30T16:07:48.588Z,1.79
2023-01-30T16:10:22.278Z,1.80
2023-01-30T16:12:54.731Z,1.85
2023-01-30T16:16:02.609Z,1.66
2023-01-30T16:18:47.596Z,1.84
2023-01-30T16:21:41.318Z,1.81
2023-01-30T16:24:26.161Z,1.79
2023-01-30T16:27:31.606Z,1.82
2023-01-30T16:30:07.811Z,2.00
2023-01-30T16:32:53.472Z,1.83
2023-01-30T16:35:34.045Z,1.74
2023-01-30T16:38:05.815Z,1.77
2023-01-30T16:41:27.248Z,1.86
2023-01-30T16:44:29.010Z,1.89
2023-01-30T16:47:42.714Z,1.68
2023-01-30T16:50:25.851Z,1.72
2023-01-30T16:52:55.392Z,1.62
2023-01-30T16:55:27.773Z,1.85
2023-01-30T16:58:10.125Z,1.61
2023-01-30T17:00:41.202Z,1.59
2023-01-30T17:03:39.428Z,1.65
2023-01-30T17:06:27.380Z,1.48
2023-01-30T17:08:58.875Z,1.60
2023-01-30T17:14:38.206Z,1.60
2023-01-30T17:17:19.405Z,1.59
2023-01-30T17:20:05.599Z,1.47
2023-01-30T17:27:20.906Z,1.41
2023-01-30T17:30:48.735Z,1.31
2023-01-30T17:33:47.335Z,1.41
2023-01-30T17:36:41.228Z,1.40
2023-01-30T17:42:34.770Z,1.36
2023-01-30T17:47:23.181Z,1.58
2023-01-30T17:50:30.363Z,1.77
2023-01-30T18:01:46.375Z,1.44
2023-01-30T18:04:23.904Z,1.24
2023-01-30T18:11:04.145Z,1.22
2023-01-30T18:14:08.399Z,1.15
2023-01-30T18:20:34.873Z,1.06
2023-01-30T18:23:52.692Z,1.02
2023-01-30T18:31:17.840Z,0.83
2023-01-30T18:50:15.806Z,1.10
2023-01-30T18:53:43.268Z,0.95
2023-01-30T18:57:10.517Z,1.06
2023-01-30T19:00:10.228Z,1.15
2023-01-30T19:07:02.949Z,1.25
2023-01-30T19:10:53.411Z,1.26
2023-01-30T19:14:13.128Z,1.30
2023-01-30T19:17:21.143Z,1.25
2023-01-30T19:20:31.407Z,1.32
2023-01-30T19:27:19.738Z,1.57
2023-01-30T19:29:53.857Z,1.46
2023-01-30T19:32:34.163Z,1.47
2023-01-30T19:35:11.835Z,1.51
2023-01-30T19:38:04.187Z,1.50
2023-01-30T19:41:13.592Z,1.53
2023-01-30T19:44:25.592Z,1.51
2023-01-30T19:47:27.119Z,1.50
2023-01-30T19:50:23.430Z,1.43
2023-01-30T19:53:10.251Z,1.52
2023-01-30T19:55:59.346Z,1.52
2023-01-30T19:58:48.204Z,1.52
2023-01-30T20:08:37.360Z,1.55
2023-01-30T20:11:37.420Z,1.45
2023-01-30T20:14:51.267Z,1.44
2023-01-30T20:18:14.987Z,1.45
2023-01-30T20:21:19.150Z,1.47
2023-01-30T20:24:28.538Z,1.45
2023-01-30T20:27:18.663Z,1.38
2023-01-30T20:30:20.312Z,1.45
2023-01-30T20:33:09.409Z,1.36
2023-01-30T20:36:47.834Z,1.43
2023-01-30T20:39:22.281Z,1.30
2023-01-30T20:41:56.177Z,1.16
2023-01-30T20:44:28.616Z,1.18
2023-01-30T20:46:57.889Z,1.31
2023-01-30T20:49:41.182Z,1.36
2023-01-30T20:52:24.538Z,1.37
2023-01-30T20:55:02.604Z,1.39
2023-01-30T20:57:38.705Z,1.45
2023-01-30T21:00:23.490Z,0.98
2023-01-30T21:03:51.122Z,1.36
2023-01-30T21:10:02.905Z,1.34
2023-01-30T21:12:41.175Z,1.22
2023-01-30T21:15:20.386Z,1.25
2023-01-30T21:17:57.912Z,1.26
2023-01-30T21:20:36.925Z,1.20
2023-01-30T21:23:35.682Z,1.27
2023-01-30T21:26:19.963Z,1.27
2023-01-30T21:29:03.174Z,1.38
2023-01-30T21:31:51.526Z,1.20
2023-01-30T21:34:51.790Z,1.31
2023-01-30T21:37:43.358Z,1.12
2023-01-30T21:44:00.438Z,1.00
2023-01-30T21:47:24.789Z,1.51
2023-01-30T21:50:08.383Z,1.59
2023-01-30T21:53:06.906Z,1.65
2023-01-30T21:56:14.109Z,1.48
2023-01-30T21:59:18.199Z,1.62
2023-01-30T22:02:27.868Z,1.84
2023-01-30T22:05:33.343Z,1.75
2023-01-30T22:08:21.592Z,1.78
2023-01-30T22:11:39.863Z,1.70
2023-01-30T22:14:18.791Z,1.56
2023-01-30T22:17:08.083Z,1.58
2023-01-30T22:19:43.482Z,1.55
2023-01-30T22:22:24.936Z,1.49
2023-01-30T22:24:57.187Z,1.37
2023-01-30T22:27:26.487Z,1.31
2023-01-30T22:30:00.233Z,1.32
2023-01-30T22:32:46.392Z,1.32
2023-01-30T22:35:22.174Z,1.14
2023-01-30T22:38:01.831Z,1.04
2023-01-30T22:40:30.038Z,1.07
2023-01-30T22:43:04.897Z,1.07
2023-01-30T22:46:07.133Z,1.02
2023-01-30T22:48:39.432Z,1.00
2023-01-30T22:51:11.474Z,1.03
2023-01-30T22:53:48.881Z,1.06
2023-01-30T22:56:18.495Z,1.14
2023-01-30T22:58:47.047Z,1.20
2023-01-30T23:01:21.499Z,1.22
2023-01-30T23:04:15.316Z,1.29
2023-01-30T23:06:43.670Z,1.37
2023-01-30T23:09:42.585Z,1.43
2023-01-30T23:12:31.598Z,1.51
2023-01-30T23:15:03.069Z,1.49
2023-01-30T23:17:50.623Z,1.34
2023-01-30T23:20:48.704Z,1.44
2023-01-30T23:23:17.460Z,1.44
2023-01-30T23:25:45.063Z,1.26
2023-01-30T23:28:12.533Z,1.33
2023-01-30T23:30:40.615Z,1.34
2023-01-30T23:33:08.065Z,1.33
2023-01-30T23:35:40.262Z,1.26
2023-01-30T23:38:16.417Z,1.12
2023-01-30T23:40:45.166Z,0.97
2023-01-30T23:43:17.852Z,1.20
2023-01-30T23:45:45.549Z,1.21
2023-01-30T23:48:12.882Z,1.21
2023-01-30T23:50:43.213Z,1.22
2023-01-30T23:53:15.180Z,1.20
2023-01-30T23:55:53.398Z,1.26
2023-01-30T23:58:22.230Z,1.20
